sensor_id;sensor_type;location;lat;lon;timestamp;pressure;altitude;pressure_sealevel;temperature;humidity
32197;BME280;18697;42.770;23.400;2024-01-15T00:02:07;95048.06;;;-0.27;62.91
32197;BME280;18697;42.770;23.400;2024-01-15T00:04:39;95042.56;;;-0.23;62.71
32197;BME280;18697;42.770;23.400;2024-01-15T00:07:06;95040.69;;;-0.30;62.73
32197;BME280;18697;42.770;23.400;2024-01-15T00:09:31;95038.56;;;-0.15;62.92
32197;BME280;18697;42.770;23.400;2024-01-15T00:11:57;95038.84;;;-0.06;62.78
32197;BME280;18697;42.770;23.400;2024-01-15T00:14:23;95045.69;;;-0.25;62.92
32197;BME280;18697;42.770;23.400;2024-01-15T00:16:48;95044.19;;;-0.29;63.60
32197;BME280;18697;42.770;23.400;2024-01-15T00:19:16;95041.38;;;-0.22;63.82
32197;BME280;18697;42.770;23.400;2024-01-15T00:21:41;95043.38;;;-0.26;63.16
32197;BME280;18697;42.770;23.400;2024-01-15T00:24:07;95044.28;;;-0.37;63.47
32197;BME280;18697;42.770;23.400;2024-01-15T00:26:33;95050.28;;;-0.18;62.90
32197;BME280;18697;42.770;23.400;2024-01-15T00:28:58;95045.91;;;-0.09;62.41
32197;BME280;18697;42.770;23.400;2024-01-15T00:31:23;95056.00;;;-0.06;62.09
32197;BME280;18697;42.770;23.400;2024-01-15T00:33:49;95053.16;;;0.02;61.84
32197;BME280;18697;42.770;23.400;2024-01-15T00:36:14;95055.47;;;0.03;61.09
32197;BME280;18697;42.770;23.400;2024-01-15T00:38:40;95059.34;;;0.06;60.94
32197;BME280;18697;42.770;23.400;2024-01-15T00:41:05;95050.53;;;-0.06;60.98
32197;BME280;18697;42.770;23.400;2024-01-15T00:43:31;95053.03;;;-0.18;60.98
32197;BME280;18697;42.770;23.400;2024-01-15T00:45:56;95045.63;;;-0.18;61.48
32197;BME280;18697;42.770;23.400;2024-01-15T00:48:21;95048.72;;;-0.16;62.41
32197;BME280;18697;42.770;23.400;2024-01-15T00:50:47;95049.88;;;-0.17;62.01
32197;BME280;18697;42.770;23.400;2024-01-15T00:53:12;95046.31;;;-0.10;62.18
32197;BME280;18697;42.770;23.400;2024-01-15T00:55:37;95055.53;;;-0.01;61.85
32197;BME280;18697;42.770;23.400;2024-01-15T00:58:03;95052.31;;;0.05;61.52
32197;BME280;18697;42.770;23.400;2024-01-15T01:00:29;95039.50;;;0.02;61.61
32197;BME280;18697;42.770;23.400;2024-01-15T01:02:54;95036.75;;;0.02;60.74
32197;BME280;18697;42.770;23.400;2024-01-15T01:05:20;95039.94;;;0.00;61.12
32197;BME280;18697;42.770;23.400;2024-01-15T01:07:45;95035.28;;;-0.03;62.08
32197;BME280;18697;42.770;23.400;2024-01-15T01:10:10;95029.84;;;-0.03;61.41
32197;BME280;18697;42.770;23.400;2024-01-15T01:12:36;95042.47;;;-0.16;60.73
32197;BME280;18697;42.770;23.400;2024-01-15T01:15:01;95042.75;;;-0.41;60.50
32197;BME280;18697;42.770;23.400;2024-01-15T01:17:27;95030.25;;;-0.39;60.45
32197;BME280;18697;42.770;23.400;2024-01-15T01:19:53;95036.44;;;-0.35;59.99
32197;BME280;18697;42.770;23.400;2024-01-15T01:22:18;95034.97;;;-0.43;61.26
32197;BME280;18697;42.770;23.400;2024-01-15T01:24:43;95024.25;;;-0.60;61.63
32197;BME280;18697;42.770;23.400;2024-01-15T01:27:09;95003.28;;;-0.67;61.65
32197;BME280;18697;42.770;23.400;2024-01-15T01:29:34;95014.06;;;-0.53;61.23
32197;BME280;18697;42.770;23.400;2024-01-15T01:32:00;95012.47;;;-0.50;62.08
32197;BME280;18697;42.770;23.400;2024-01-15T01:34:25;95015.16;;;-0.47;61.19
32197;BME280;18697;42.770;23.400;2024-01-15T01:36:51;95012.47;;;-0.50;61.86
32197;BME280;18697;42.770;23.400;2024-01-15T01:39:16;95013.31;;;-0.57;61.12
32197;BME280;18697;42.770;23.400;2024-01-15T01:41:42;95004.47;;;-0.68;61.56
32197;BME280;18697;42.770;23.400;2024-01-15T01:44:07;95002.69;;;-0.82;61.89
32197;BME280;18697;42.770;23.400;2024-01-15T01:46:33;95008.34;;;-1.03;62.32
32197;BME280;18697;42.770;23.400;2024-01-15T01:48:59;95006.94;;;-1.18;62.83
32197;BME280;18697;42.770;23.400;2024-01-15T01:51:30;95011.78;;;-1.40;64.39
32197;BME280;18697;42.770;23.400;2024-01-15T01:53:56;95014.13;;;-1.39;64.60
32197;BME280;18697;42.770;23.400;2024-01-15T01:56:21;95020.72;;;-1.36;65.14
32197;BME280;18697;42.770;23.400;2024-01-15T01:58:47;95006.28;;;-1.33;65.20
32197;BME280;18697;42.770;23.400;2024-01-15T02:01:13;95007.06;;;-1.33;64.19
32197;BME280;18697;42.770;23.400;2024-01-15T02:03:39;95009.44;;;-1.38;64.96
32197;BME280;18697;42.770;23.400;2024-01-15T02:06:05;94996.53;;;-1.30;65.23
32197;BME280;18697;42.770;23.400;2024-01-15T02:08:31;94996.91;;;-1.28;65.68
32197;BME280;18697;42.770;23.400;2024-01-15T02:10:56;94996.19;;;-1.36;66.23
32197;BME280;18697;42.770;23.400;2024-01-15T02:13:22;94992.72;;;-1.40;66.74
32197;BME280;18697;42.770;23.400;2024-01-15T02:15:47;94990.72;;;-1.33;67.09
32197;BME280;18697;42.770;23.400;2024-01-15T02:18:13;94991.38;;;-1.18;66.63
32197;BME280;18697;42.770;23.400;2024-01-15T02:20:38;94977.63;;;-1.07;67.01
32197;BME280;18697;42.770;23.400;2024-01-15T02:23:12;94984.97;;;-1.01;65.87
32197;BME280;18697;42.770;23.400;2024-01-15T02:25:47;94976.75;;;-0.97;65.25
32197;BME280;18697;42.770;23.400;2024-01-15T02:28:14;94964.03;;;-1.11;64.96
32197;BME280;18697;42.770;23.400;2024-01-15T02:30:41;94966.69;;;-1.04;64.70
32197;BME280;18697;42.770;23.400;2024-01-15T02:33:10;94957.84;;;-1.15;65.10
32197;BME280;18697;42.770;23.400;2024-01-15T02:35:36;94941.09;;;-1.51;65.59
32197;BME280;18697;42.770;23.400;2024-01-15T02:38:02;94919.19;;;-1.85;66.38
32197;BME280;18697;42.770;23.400;2024-01-15T02:40:28;94933.09;;;-1.72;67.79
32197;BME280;18697;42.770;23.400;2024-01-15T02:42:53;94931.50;;;-1.66;68.17
32197;BME280;18697;42.770;23.400;2024-01-15T02:45:19;94937.41;;;-1.75;68.05
32197;BME280;18697;42.770;23.400;2024-01-15T02:47:44;94924.88;;;-1.65;67.58
32197;BME280;18697;42.770;23.400;2024-01-15T02:50:10;94920.19;;;-1.64;67.13
32197;BME280;18697;42.770;23.400;2024-01-15T02:52:35;94922.59;;;-1.74;67.53
32197;BME280;18697;42.770;23.400;2024-01-15T02:55:01;94923.22;;;-2.04;68.67
32197;BME280;18697;42.770;23.400;2024-01-15T02:57:26;94926.53;;;-1.78;67.39
32197;BME280;18697;42.770;23.400;2024-01-15T02:59:51;94920.81;;;-2.50;70.51
32197;BME280;18697;42.770;23.400;2024-01-15T03:02:17;94934.59;;;-2.19;70.76
32197;BME280;18697;42.770;23.400;2024-01-15T03:04:43;94932.94;;;-2.06;69.54
32197;BME280;18697;42.770;23.400;2024-01-15T03:07:09;94927.16;;;-2.81;70.33
32197;BME280;18697;42.770;23.400;2024-01-15T03:09:34;94927.97;;;-2.18;69.52
32197;BME280;18697;42.770;23.400;2024-01-15T03:12:00;94932.31;;;-2.24;68.27
32197;BME280;18697;42.770;23.400;2024-01-15T03:14:25;94922.34;;;-1.90;68.24
32197;BME280;18697;42.770;23.400;2024-01-15T03:16:51;94926.59;;;-1.85;67.67
32197;BME280;18697;42.770;23.400;2024-01-15T03:19:17;94940.47;;;-1.69;67.08
32197;BME280;18697;42.770;23.400;2024-01-15T03:21:42;94939.56;;;-1.55;65.63
32197;BME280;18697;42.770;23.400;2024-01-15T03:24:07;94941.53;;;-1.56;64.82
32197;BME280;18697;42.770;23.400;2024-01-15T03:26:33;94937.22;;;-1.53;65.15
32197;BME280;18697;42.770;23.400;2024-01-15T03:28:58;94924.28;;;-1.46;64.35
32197;BME280;18697;42.770;23.400;2024-01-15T03:31:24;94922.31;;;-1.42;64.45
32197;BME280;18697;42.770;23.400;2024-01-15T03:33:49;94915.41;;;-1.50;64.70
32197;BME280;18697;42.770;23.400;2024-01-15T03:36:14;94919.25;;;-1.47;64.67
32197;BME280;18697;42.770;23.400;2024-01-15T03:38:41;94908.06;;;-1.56;64.61
32197;BME280;18697;42.770;23.400;2024-01-15T03:41:07;94911.91;;;-1.50;65.73
32197;BME280;18697;42.770;23.400;2024-01-15T03:43:33;94910.28;;;-1.48;66.14
32197;BME280;18697;42.770;23.400;2024-01-15T03:45:58;94910.72;;;-1.49;66.45
32197;BME280;18697;42.770;23.400;2024-01-15T03:48:24;94910.78;;;-1.56;65.81
32197;BME280;18697;42.770;23.400;2024-01-15T03:50:49;94900.19;;;-1.47;66.89
32197;BME280;18697;42.770;23.400;2024-01-15T03:53:14;94897.09;;;-1.49;66.53
32197;BME280;18697;42.770;23.400;2024-01-15T03:55:40;94893.03;;;-1.34;67.49
32197;BME280;18697;42.770;23.400;2024-01-15T03:58:05;94905.78;;;-1.24;67.02
32197;BME280;18697;42.770;23.400;2024-01-15T04:00:30;94903.72;;;-1.13;66.92
32197;BME280;18697;42.770;23.400;2024-01-15T04:02:56;94900.84;;;-0.98;66.39
32197;BME280;18697;42.770;23.400;2024-01-15T04:05:21;94895.22;;;-0.84;65.31
32197;BME280;18697;42.770;23.400;2024-01-15T04:07:47;94892.00;;;-0.76;65.46
32197;BME280;18697;42.770;23.400;2024-01-15T04:10:12;94885.63;;;-0.66;65.72
32197;BME280;18697;42.770;23.400;2024-01-15T04:12:37;94868.84;;;-0.64;65.02
32197;BME280;18697;42.770;23.400;2024-01-15T04:15:03;94878.56;;;-0.63;66.07
32197;BME280;18697;42.770;23.400;2024-01-15T04:17:29;94888.25;;;-0.58;66.64
32197;BME280;18697;42.770;23.400;2024-01-15T04:19:54;94880.97;;;-0.69;65.18
32197;BME280;18697;42.770;23.400;2024-01-15T04:22:20;94883.22;;;-0.60;66.41
32197;BME280;18697;42.770;23.400;2024-01-15T04:24:45;94874.25;;;-0.60;66.28
32197;BME280;18697;42.770;23.400;2024-01-15T04:27:11;94873.47;;;-0.61;65.72
32197;BME280;18697;42.770;23.400;2024-01-15T04:29:39;94868.13;;;-0.68;65.51
32197;BME280;18697;42.770;23.400;2024-01-15T04:32:05;94884.41;;;-0.91;65.28
32197;BME280;18697;42.770;23.400;2024-01-15T04:34:30;94887.25;;;-1.02;65.11
32197;BME280;18697;42.770;23.400;2024-01-15T04:36:56;94882.94;;;-1.00;65.61
32197;BME280;18697;42.770;23.400;2024-01-15T04:39:21;94874.84;;;-1.44;66.56
32197;BME280;18697;42.770;23.400;2024-01-15T04:41:47;94886.03;;;-1.73;67.60
32197;BME280;18697;42.770;23.400;2024-01-15T04:44:13;94871.31;;;-1.41;67.87
32197;BME280;18697;42.770;23.400;2024-01-15T04:46:38;94865.84;;;-1.38;67.11
32197;BME280;18697;42.770;23.400;2024-01-15T04:49:03;94889.84;;;-2.74;70.22
32197;BME280;18697;42.770;23.400;2024-01-15T04:51:29;94897.44;;;-3.20;73.68
32197;BME280;18697;42.770;23.400;2024-01-15T04:53:54;94884.03;;;-2.72;73.45
32197;BME280;18697;42.770;23.400;2024-01-15T04:56:19;94879.50;;;-2.30;72.71
32197;BME280;18697;42.770;23.400;2024-01-15T04:58:45;94874.25;;;-2.04;72.69
32197;BME280;18697;42.770;23.400;2024-01-15T05:01:10;94882.19;;;-1.79;71.95
32197;BME280;18697;42.770;23.400;2024-01-15T05:03:36;94878.19;;;-1.63;71.59
32197;BME280;18697;42.770;23.400;2024-01-15T05:06:01;94875.75;;;-1.54;70.76
32197;BME280;18697;42.770;23.400;2024-01-15T05:08:27;94877.09;;;-1.36;70.59
32197;BME280;18697;42.770;23.400;2024-01-15T05:10:52;94883.19;;;-1.21;71.38
32197;BME280;18697;42.770;23.400;2024-01-15T05:13:17;94878.34;;;-1.06;69.35
32197;BME280;18697;42.770;23.400;2024-01-15T05:15:43;94866.13;;;-0.94;68.89
32197;BME280;18697;42.770;23.400;2024-01-15T05:18:08;94869.50;;;-0.83;68.15
32197;BME280;18697;42.770;23.400;2024-01-15T05:20:33;94875.69;;;-0.79;68.58
32197;BME280;18697;42.770;23.400;2024-01-15T05:22:59;94869.66;;;-0.67;68.09
32197;BME280;18697;42.770;23.400;2024-01-15T05:25:24;94845.56;;;-0.99;68.39
32197;BME280;18697;42.770;23.400;2024-01-15T05:27:50;94846.59;;;-0.89;68.13
32197;BME280;18697;42.770;23.400;2024-01-15T05:30:15;94838.28;;;-0.79;68.70
32197;BME280;18697;42.770;23.400;2024-01-15T05:32:41;94848.50;;;-0.86;68.89
32197;BME280;18697;42.770;23.400;2024-01-15T05:35:07;94843.09;;;-0.90;69.17
32197;BME280;18697;42.770;23.400;2024-01-15T05:37:32;94853.16;;;-0.83;69.83
32197;BME280;18697;42.770;23.400;2024-01-15T05:39:58;94856.03;;;-0.67;70.58
32197;BME280;18697;42.770;23.400;2024-01-15T05:42:23;94849.34;;;-0.62;68.56
32197;BME280;18697;42.770;23.400;2024-01-15T05:44:49;94845.94;;;-0.70;68.48
32197;BME280;18697;42.770;23.400;2024-01-15T05:47:14;94842.75;;;-0.65;68.04
32197;BME280;18697;42.770;23.400;2024-01-15T05:49:40;94838.03;;;-0.61;69.51
32197;BME280;18697;42.770;23.400;2024-01-15T05:52:05;94836.38;;;-0.55;68.72
32197;BME280;18697;42.770;23.400;2024-01-15T05:54:31;94818.06;;;-0.54;68.53
32197;BME280;18697;42.770;23.400;2024-01-15T05:56:56;94819.09;;;-0.45;69.45
32197;BME280;18697;42.770;23.400;2024-01-15T05:59:22;94807.00;;;-0.44;69.13
32197;BME280;18697;42.770;23.400;2024-01-15T06:01:47;94799.59;;;-0.43;68.65
32197;BME280;18697;42.770;23.400;2024-01-15T06:04:12;94807.31;;;-0.38;69.78
32197;BME280;18697;42.770;23.400;2024-01-15T06:06:38;94812.75;;;-0.38;68.64
32197;BME280;18697;42.770;23.400;2024-01-15T06:09:03;94824.56;;;-1.02;69.13
32197;BME280;18697;42.770;23.400;2024-01-15T06:11:34;94829.75;;;-0.81;69.84
32197;BME280;18697;42.770;23.400;2024-01-15T06:14:00;94832.22;;;-0.63;68.99
32197;BME280;18697;42.770;23.400;2024-01-15T06:16:28;94843.47;;;-0.61;68.19
32197;BME280;18697;42.770;23.400;2024-01-15T06:18:54;94835.00;;;-0.67;68.27
32197;BME280;18697;42.770;23.400;2024-01-15T06:21:19;94834.78;;;-0.25;67.53
32197;BME280;18697;42.770;23.400;2024-01-15T06:23:45;94823.94;;;0.18;66.52
32197;BME280;18697;42.770;23.400;2024-01-15T06:26:13;94831.44;;;0.57;65.32
32197;BME280;18697;42.770;23.400;2024-01-15T06:28:39;94831.88;;;0.95;62.83
32197;BME280;18697;42.770;23.400;2024-01-15T06:31:06;94827.09;;;1.19;61.65
32197;BME280;18697;42.770;23.400;2024-01-15T06:33:32;94817.69;;;1.20;61.37
32197;BME280;18697;42.770;23.400;2024-01-15T06:35:57;94811.38;;;1.23;61.27
32197;BME280;18697;42.770;23.400;2024-01-15T06:38:22;94833.75;;;1.18;61.85
32197;BME280;18697;42.770;23.400;2024-01-15T06:40:48;94831.94;;;1.11;62.78
32197;BME280;18697;42.770;23.400;2024-01-15T06:43:14;94831.94;;;0.91;63.12
32197;BME280;18697;42.770;23.400;2024-01-15T06:45:43;94835.50;;;1.28;62.90
32197;BME280;18697;42.770;23.400;2024-01-15T06:48:09;94840.84;;;0.76;63.30
32197;BME280;18697;42.770;23.400;2024-01-15T06:50:34;94835.09;;;1.10;62.95
32197;BME280;18697;42.770;23.400;2024-01-15T06:53:00;94838.66;;;1.26;62.44
32197;BME280;18697;42.770;23.400;2024-01-15T06:55:25;94830.94;;;1.57;62.25
32197;BME280;18697;42.770;23.400;2024-01-15T06:57:51;94845.34;;;1.78;61.23
32197;BME280;18697;42.770;23.400;2024-01-15T07:00:17;94835.09;;;1.98;60.83
32197;BME280;18697;42.770;23.400;2024-01-15T07:02:44;94837.91;;;2.27;60.33
32197;BME280;18697;42.770;23.400;2024-01-15T07:05:10;94840.75;;;2.69;58.62
32197;BME280;18697;42.770;23.400;2024-01-15T07:07:36;94826.25;;;2.84;58.13
32197;BME280;18697;42.770;23.400;2024-01-15T07:10:01;94836.88;;;2.82;58.03
32197;BME280;18697;42.770;23.400;2024-01-15T07:12:28;94836.06;;;2.69;58.37
32197;BME280;18697;42.770;23.400;2024-01-15T07:14:54;94837.78;;;2.63;59.25
32197;BME280;18697;42.770;23.400;2024-01-15T07:17:20;94846.63;;;2.54;59.70
32197;BME280;18697;42.770;23.400;2024-01-15T07:19:46;94840.53;;;2.47;61.39
32197;BME280;18697;42.770;23.400;2024-01-15T07:22:11;94830.09;;;2.42;61.70
32197;BME280;18697;42.770;23.400;2024-01-15T07:24:37;94829.94;;;2.33;61.38
32197;BME280;18697;42.770;23.400;2024-01-15T07:27:02;94822.94;;;2.15;61.49
32197;BME280;18697;42.770;23.400;2024-01-15T07:29:30;94838.34;;;2.09;62.04
32197;BME280;18697;42.770;23.400;2024-01-15T07:31:55;94842.78;;;1.87;62.29
32197;BME280;18697;42.770;23.400;2024-01-15T07:34:20;94838.09;;;1.51;63.88
32197;BME280;18697;42.770;23.400;2024-01-15T07:36:47;94836.59;;;1.67;63.75
32197;BME280;18697;42.770;23.400;2024-01-15T07:39:12;94842.78;;;1.71;63.82
32197;BME280;18697;42.770;23.400;2024-01-15T07:41:39;94827.09;;;1.55;64.59
32197;BME280;18697;42.770;23.400;2024-01-15T07:44:05;94839.34;;;1.67;65.12
32197;BME280;18697;42.770;23.400;2024-01-15T07:46:30;94838.16;;;1.68;65.16
32197;BME280;18697;42.770;23.400;2024-01-15T07:48:55;94845.66;;;1.63;65.28
32197;BME280;18697;42.770;23.400;2024-01-15T07:51:24;94834.72;;;1.63;65.63
32197;BME280;18697;42.770;23.400;2024-01-15T07:53:49;94840.97;;;1.64;65.88
32197;BME280;18697;42.770;23.400;2024-01-15T07:56:15;94824.34;;;1.39;66.14
32197;BME280;18697;42.770;23.400;2024-01-15T07:58:41;94832.84;;;1.24;66.20
32197;BME280;18697;42.770;23.400;2024-01-15T08:01:07;94834.09;;;0.80;68.45
32197;BME280;18697;42.770;23.400;2024-01-15T08:03:32;94818.84;;;0.63;68.79
32197;BME280;18697;42.770;23.400;2024-01-15T08:05:58;94833.00;;;0.78;70.05
32197;BME280;18697;42.770;23.400;2024-01-15T08:08:24;94802.44;;;0.63;68.67
32197;BME280;18697;42.770;23.400;2024-01-15T08:10:51;94796.78;;;0.30;70.14
32197;BME280;18697;42.770;23.400;2024-01-15T08:13:17;94809.69;;;0.07;71.20
32197;BME280;18697;42.770;23.400;2024-01-15T08:15:42;94815.34;;;-0.04;71.38
32197;BME280;18697;42.770;23.400;2024-01-15T08:18:07;94827.22;;;-0.14;72.52
32197;BME280;18697;42.770;23.400;2024-01-15T08:20:33;94830.91;;;-0.01;72.96
32197;BME280;18697;42.770;23.400;2024-01-15T08:22:58;94837.22;;;0.16;72.39
32197;BME280;18697;42.770;23.400;2024-01-15T08:25:24;94840.50;;;0.07;74.13
32197;BME280;18697;42.770;23.400;2024-01-15T08:27:49;94844.06;;;0.51;73.51
32197;BME280;18697;42.770;23.400;2024-01-15T08:30:15;94856.88;;;0.54;72.97
32197;BME280;18697;42.770;23.400;2024-01-15T08:32:40;94847.00;;;0.60;73.67
32197;BME280;18697;42.770;23.400;2024-01-15T08:35:09;94830.09;;;0.45;73.87
32197;BME280;18697;42.770;23.400;2024-01-15T08:37:34;94823.53;;;0.62;73.82
32197;BME280;18697;42.770;23.400;2024-01-15T08:39:59;94826.84;;;0.74;73.71
32197;BME280;18697;42.770;23.400;2024-01-15T08:42:25;94831.59;;;0.89;73.00
32197;BME280;18697;42.770;23.400;2024-01-15T08:44:50;94821.41;;;1.29;71.46
32197;BME280;18697;42.770;23.400;2024-01-15T08:47:16;94797.75;;;1.55;70.28
32197;BME280;18697;42.770;23.400;2024-01-15T08:49:42;94810.44;;;1.82;69.33
32197;BME280;18697;42.770;23.400;2024-01-15T08:52:09;94801.63;;;2.07;68.70
32197;BME280;18697;42.770;23.400;2024-01-15T08:54:34;94804.72;;;2.09;67.11
32197;BME280;18697;42.770;23.400;2024-01-15T08:57:00;94805.09;;;2.23;67.51
32197;BME280;18697;42.770;23.400;2024-01-15T08:59:25;94783.19;;;2.23;66.68
32197;BME280;18697;42.770;23.400;2024-01-15T09:01:54;94770.03;;;2.18;66.14
32197;BME280;18697;42.770;23.400;2024-01-15T09:04:22;94771.63;;;2.32;67.29
32197;BME280;18697;42.770;23.400;2024-01-15T09:06:48;94767.66;;;2.20;66.55
32197;BME280;18697;42.770;23.400;2024-01-15T09:09:13;94747.81;;;2.29;66.89
32197;BME280;18697;42.770;23.400;2024-01-15T09:11:41;94738.66;;;2.36;66.18
32197;BME280;18697;42.770;23.400;2024-01-15T09:14:07;94739.06;;;2.34;65.00
32197;BME280;18697;42.770;23.400;2024-01-15T09:16:33;94750.31;;;1.46;65.90
32197;BME280;18697;42.770;23.400;2024-01-15T09:18:58;94736.34;;;1.89;66.11
32197;BME280;18697;42.770;23.400;2024-01-15T09:21:25;94733.34;;;2.00;66.23
32197;BME280;18697;42.770;23.400;2024-01-15T09:23:50;94720.72;;;2.18;67.41
32197;BME280;18697;42.770;23.400;2024-01-15T09:26:16;94725.44;;;2.47;66.98
32197;BME280;18697;42.770;23.400;2024-01-15T09:28:41;94727.88;;;1.83;67.96
32197;BME280;18697;42.770;23.400;2024-01-15T09:31:07;94718.31;;;2.49;67.73
32197;BME280;18697;42.770;23.400;2024-01-15T09:33:32;94720.38;;;2.45;66.62
32197;BME280;18697;42.770;23.400;2024-01-15T09:36:01;94716.47;;;2.59;67.55
32197;BME280;18697;42.770;23.400;2024-01-15T09:38:29;94724.34;;;2.98;66.31
32197;BME280;18697;42.770;23.400;2024-01-15T09:40:54;94713.25;;;3.02;65.41
32197;BME280;18697;42.770;23.400;2024-01-15T09:43:20;94714.59;;;3.23;66.18
32197;BME280;18697;42.770;23.400;2024-01-15T09:45:46;94697.91;;;3.30;66.52
32197;BME280;18697;42.770;23.400;2024-01-15T09:48:12;94690.34;;;3.47;67.26
32197;BME280;18697;42.770;23.400;2024-01-15T09:50:38;94676.13;;;3.74;66.44
32197;BME280;18697;42.770;23.400;2024-01-15T09:53:05;94667.13;;;4.08;66.09
32197;BME280;18697;42.770;23.400;2024-01-15T09:55:30;94652.56;;;4.63;63.93
32197;BME280;18697;42.770;23.400;2024-01-15T09:57:58;94645.19;;;4.82;61.46
32197;BME280;18697;42.770;23.400;2024-01-15T10:00:25;94645.34;;;5.10;61.06
32197;BME280;18697;42.770;23.400;2024-01-15T10:02:52;94632.13;;;5.45;59.70
32197;BME280;18697;42.770;23.400;2024-01-15T10:05:17;94652.13;;;5.76;58.62
32197;BME280;18697;42.770;23.400;2024-01-15T10:07:43;94656.00;;;6.24;56.32
32197;BME280;18697;42.770;23.400;2024-01-15T10:10:11;94653.72;;;6.23;54.34
32197;BME280;18697;42.770;23.400;2024-01-15T10:12:36;94647.44;;;6.13;53.85
32197;BME280;18697;42.770;23.400;2024-01-15T10:15:03;94633.66;;;6.22;54.19
32197;BME280;18697;42.770;23.400;2024-01-15T10:17:29;94617.41;;;6.34;54.17
32197;BME280;18697;42.770;23.400;2024-01-15T10:19:56;94603.09;;;6.72;52.83
32197;BME280;18697;42.770;23.400;2024-01-15T10:22:21;94609.88;;;7.13;51.52
32197;BME280;18697;42.770;23.400;2024-01-15T10:24:47;94608.28;;;7.30;51.80
32197;BME280;18697;42.770;23.400;2024-01-15T10:27:12;94609.50;;;7.53;50.47
32197;BME280;18697;42.770;23.400;2024-01-15T10:29:38;94586.53;;;7.95;49.45
32197;BME280;18697;42.770;23.400;2024-01-15T10:32:07;94582.47;;;8.05;49.46
32197;BME280;18697;42.770;23.400;2024-01-15T10:34:33;94595.28;;;8.17;48.15
32197;BME280;18697;42.770;23.400;2024-01-15T10:37:02;94592.88;;;8.10;48.01
32197;BME280;18697;42.770;23.400;2024-01-15T10:39:28;94594.47;;;8.02;48.45
32197;BME280;18697;42.770;23.400;2024-01-15T10:41:53;94591.66;;;7.87;48.78
32197;BME280;18697;42.770;23.400;2024-01-15T10:44:18;94580.19;;;7.79;49.66
32197;BME280;18697;42.770;23.400;2024-01-15T10:46:45;94576.25;;;7.95;50.29
32197;BME280;18697;42.770;23.400;2024-01-15T10:49:13;94569.69;;;8.07;50.15
32197;BME280;18697;42.770;23.400;2024-01-15T10:51:39;94572.75;;;8.09;49.26
32197;BME280;18697;42.770;23.400;2024-01-15T10:54:09;94557.66;;;7.96;49.31
32197;BME280;18697;42.770;23.400;2024-01-15T10:56:36;94557.53;;;7.90;49.75
32197;BME280;18697;42.770;23.400;2024-01-15T10:59:03;94558.06;;;8.03;49.90
32197;BME280;18697;42.770;23.400;2024-01-15T11:01:30;94555.94;;;7.98;49.72
32197;BME280;18697;42.770;23.400;2024-01-15T11:03:56;94546.59;;;7.96;49.90
32197;BME280;18697;42.770;23.400;2024-01-15T11:06:24;94551.34;;;7.95;50.02
32197;BME280;18697;42.770;23.400;2024-01-15T11:08:52;94548.22;;;8.02;50.75
32197;BME280;18697;42.770;23.400;2024-01-15T11:11:21;94537.75;;;8.06;50.13
32197;BME280;18697;42.770;23.400;2024-01-15T11:13:47;94519.84;;;8.16;50.08
32197;BME280;18697;42.770;23.400;2024-01-15T11:16:15;94525.44;;;8.22;49.14
32197;BME280;18697;42.770;23.400;2024-01-15T11:19:01;94521.97;;;8.51;48.69
32197;BME280;18697;42.770;23.400;2024-01-15T11:21:28;94520.16;;;8.63;49.13
32197;BME280;18697;42.770;23.400;2024-01-15T11:24:00;94510.91;;;8.66;48.35
32197;BME280;18697;42.770;23.400;2024-01-15T11:29:07;94519.06;;;8.01;48.42
32197;BME280;18697;42.770;23.400;2024-01-15T11:34:05;94504.81;;;7.55;49.68
32197;BME280;18697;42.770;23.400;2024-01-15T11:41:54;94487.28;;;7.58;50.26
32197;BME280;18697;42.770;23.400;2024-01-15T11:44:21;94488.50;;;7.81;49.85
32197;BME280;18697;42.770;23.400;2024-01-15T11:46:58;94490.16;;;8.02;49.14
32197;BME280;18697;42.770;23.400;2024-01-15T11:52:20;94493.69;;;8.91;47.16
32197;BME280;18697;42.770;23.400;2024-01-15T11:55:39;94493.34;;;9.04;47.02
32197;BME280;18697;42.770;23.400;2024-01-15T12:00:05;94474.78;;;8.89;47.15
32197;BME280;18697;42.770;23.400;2024-01-15T12:02:32;94463.75;;;8.75;47.30
32197;BME280;18697;42.770;23.400;2024-01-15T12:04:57;94459.28;;;8.63;47.69
32197;BME280;18697;42.770;23.400;2024-01-15T12:07:23;94466.53;;;8.60;48.33
32197;BME280;18697;42.770;23.400;2024-01-15T12:09:48;94469.41;;;8.51;48.18
32197;BME280;18697;42.770;23.400;2024-01-15T12:12:39;94464.69;;;7.98;52.12
32197;BME280;18697;42.770;23.400;2024-01-15T12:15:05;94463.63;;;7.81;54.23
32197;BME280;18697;42.770;23.400;2024-01-15T12:17:30;94452.59;;;7.18;55.61
32197;BME280;18697;42.770;23.400;2024-01-15T12:19:56;94453.19;;;6.99;55.82
32197;BME280;18697;42.770;23.400;2024-01-15T12:22:22;94453.63;;;6.40;57.94
32197;BME280;18697;42.770;23.400;2024-01-15T12:24:47;94454.66;;;6.52;57.39
32197;BME280;18697;42.770;23.400;2024-01-15T12:27:14;94449.75;;;5.86;58.33
32197;BME280;18697;42.770;23.400;2024-01-15T12:29:39;94446.09;;;5.89;59.11
32197;BME280;18697;42.770;23.400;2024-01-15T12:32:05;94454.06;;;5.69;58.80
32197;BME280;18697;42.770;23.400;2024-01-15T12:34:31;94441.22;;;5.66;59.33
32197;BME280;18697;42.770;23.400;2024-01-15T12:36:58;94439.84;;;5.89;58.24
32197;BME280;18697;42.770;23.400;2024-01-15T12:39:24;94427.88;;;5.92;57.76
32197;BME280;18697;42.770;23.400;2024-01-15T12:41:50;94428.81;;;5.89;58.08
32197;BME280;18697;42.770;23.400;2024-01-15T12:44:16;94426.66;;;5.93;57.76
32197;BME280;18697;42.770;23.400;2024-01-15T12:46:42;94427.56;;;5.81;58.16
32197;BME280;18697;42.770;23.400;2024-01-15T12:49:08;94421.56;;;6.01;57.55
32197;BME280;18697;42.770;23.400;2024-01-15T12:51:34;94418.00;;;6.18;56.97
32197;BME280;18697;42.770;23.400;2024-01-15T12:54:00;94418.56;;;6.32;56.18
32197;BME280;18697;42.770;23.400;2024-01-15T12:56:25;94405.06;;;6.34;55.80
32197;BME280;18697;42.770;23.400;2024-01-15T12:58:50;94419.13;;;6.45;55.50
32197;BME280;18697;42.770;23.400;2024-01-15T13:01:16;94413.28;;;6.52;55.72
32197;BME280;18697;42.770;23.400;2024-01-15T13:03:42;94404.53;;;6.53;56.15
32197;BME280;18697;42.770;23.400;2024-01-15T13:06:07;94408.19;;;6.59;56.72